Alfordsville, Indiana
Current Conditions -  °F | °C
As of 6:15 AM on Friday 24 Oct 2014 (Local Time) from KDCY Reporting Station
Overcast Overcast  
Wind Chill: 46°   Ceiling: 3100
Heat Index: 46°   Visibility: 7mi
Dew Point: 46°   Wind: 3mph
Humidity: 100%   Direction: 140°SE
Pressure: 30.12"   Gusts: NA
Location:  38.6074°N, 86.9234°W
Report Text: KDCY 241115Z AUTO 14003KT 7SM OVC031 08/08 A3012 RMK AO2 T00750075
Loading
Personal Weather Stations






























Interactive Weather Map
Tropical Storm Tracking
New forecast layout! Learn more

10-Day Weather Forecast

Advertisements
Track Severe Weather on mobile